EWG20H LEPA-EDDL
Flight info
| Callsign | EWG20H |
|---|---|
| Flight time | 1h 54m |
| Altitude | 34000 |
| Route | MEROS5A MEROS N853 LUMAS DCT MAXIR DCT LUSOL DCT BODRU DCT OKTET DCT IRMAR DCT KINES DCT VANAS DCT MOBLO DCT UBIMA DCT GILIR DCT PENDU DCT IXILU DCT EPL DCT ROUSY DCT DIK N853 ARCKY T853 NVO T857 BIKMU BIKMU1A |
| Aircraft | A320/M-SDE2E3FGIJ1RWXYZ/HB1 |
Departure
| Time | 2026-05-05 12:23 |
|---|---|
| Airport | Palma de Mallorca Airport (LEPA) |
Arrival
| Time | 2026-05-05 14:18 |
|---|---|
| Airport | Düsseldorf Airport (EDDL) |
| Time | Latitude | Longitude | Altitude | Speed | Heading |
|---|---|---|---|---|---|
| 2026-05-05 11:56 | 39.54800 | 2.73599 | 37 ft | 0 kts | 58° |
| 2026-05-05 12:10 | 39.54790 | 2.73578 | 38 ft | 2 kts | 58° |
| 2026-05-05 12:10 | 39.54777 | 2.73555 | 37 ft | 4 kts | 34° |
| 2026-05-05 12:11 | 39.54754 | 2.73547 | 38 ft | 4 kts | 343° |
| 2026-05-05 12:11 | 39.54732 | 2.73561 | 36 ft | 4 kts | 329° |
| 2026-05-05 12:11 | 39.54719 | 2.73570 | 36 ft | 0 kts | 329° |
| 2026-05-05 12:14 | 39.54737 | 2.73557 | 37 ft | 8 kts | 329° |
| 2026-05-05 12:15 | 39.54774 | 2.73504 | 38 ft | 9 kts | 276° |
| 2026-05-05 12:15 | 39.54728 | 2.73472 | 38 ft | 10 kts | 157° |
| 2026-05-05 12:15 | 39.54658 | 2.73527 | 38 ft | 11 kts | 149° |
| 2026-05-05 12:15 | 39.54629 | 2.73594 | 38 ft | 9 kts | 68° |
| 2026-05-05 12:16 | 39.54659 | 2.73670 | 37 ft | 13 kts | 65° |
| 2026-05-05 12:16 | 39.54712 | 2.73787 | 38 ft | 15 kts | 59° |
| 2026-05-05 12:16 | 39.54765 | 2.73894 | 38 ft | 13 kts | 57° |
| 2026-05-05 12:16 | 39.54811 | 2.73987 | 38 ft | 12 kts | 49° |
| 2026-05-05 12:17 | 39.54875 | 2.73977 | 38 ft | 10 kts | 329° |
| 2026-05-05 12:17 | 39.54933 | 2.73974 | 37 ft | 8 kts | 52° |
| 2026-05-05 12:17 | 39.54974 | 2.74009 | 38 ft | 11 kts | 340° |
| 2026-05-05 12:17 | 39.55055 | 2.73946 | 38 ft | 15 kts | 328° |
| 2026-05-05 12:18 | 39.55162 | 2.73861 | 38 ft | 19 kts | 328° |
| 2026-05-05 12:18 | 39.55281 | 2.73767 | 38 ft | 21 kts | 328° |
| 2026-05-05 12:18 | 39.55408 | 2.73667 | 38 ft | 22 kts | 329° |
| 2026-05-05 12:18 | 39.55526 | 2.73574 | 38 ft | 14 kts | 329° |
| 2026-05-05 12:19 | 39.55592 | 2.73522 | 38 ft | 10 kts | 328° |
| 2026-05-05 12:19 | 39.55652 | 2.73510 | 36 ft | 11 kts | 29° |
| 2026-05-05 12:19 | 39.55699 | 2.73594 | 37 ft | 11 kts | 58° |
| 2026-05-05 12:19 | 39.55737 | 2.73675 | 38 ft | 10 kts | 58° |
| 2026-05-05 12:20 | 39.55783 | 2.73772 | 38 ft | 16 kts | 58° |
| 2026-05-05 12:20 | 39.55848 | 2.73909 | 38 ft | 18 kts | 58° |
| 2026-05-05 12:20 | 39.55910 | 2.74041 | 36 ft | 16 kts | 58° |
| 2026-05-05 12:20 | 39.55967 | 2.74161 | 38 ft | 15 kts | 58° |
| 2026-05-05 12:21 | 39.56017 | 2.74268 | 38 ft | 13 kts | 58° |
| 2026-05-05 12:21 | 39.56063 | 2.74365 | 38 ft | 12 kts | 59° |
| 2026-05-05 12:21 | 39.56109 | 2.74442 | 38 ft | 10 kts | 34° |
| 2026-05-05 12:21 | 39.56181 | 2.74438 | 36 ft | 11 kts | 330° |
| 2026-05-05 12:22 | 39.56249 | 2.74376 | 38 ft | 13 kts | 307° |
| 2026-05-05 12:22 | 39.56230 | 2.74271 | 38 ft | 11 kts | 238° |
| 2026-05-05 12:22 | 39.56206 | 2.74221 | 38 ft | 8 kts | 238° |
| 2026-05-05 12:22 | 39.56106 | 2.74009 | 38 ft | 60 kts | 238° |
| 2026-05-05 12:23 | 39.55777 | 2.73312 | 38 ft | 119 kts | 238° |
| 2026-05-05 12:23 | 39.55255 | 2.72217 | 101 ft | 159 kts | 237° |
| 2026-05-05 12:23 | 39.54662 | 2.70963 | 542 ft | 172 kts | 237° |
| 2026-05-05 12:23 | 39.53984 | 2.69534 | 806 ft | 200 kts | 237° |
| 2026-05-05 12:24 | 39.53241 | 2.67974 | 685 ft | 201 kts | 239° |
| 2026-05-05 12:24 | 39.52503 | 2.66412 | 694 ft | 206 kts | 237° |
| 2026-05-05 12:24 | 39.51749 | 2.64819 | 1378 ft | 206 kts | 236° |
| 2026-05-05 12:24 | 39.50999 | 2.63234 | 2197 ft | 207 kts | 237° |
| 2026-05-05 12:25 | 39.50239 | 2.61645 | 2987 ft | 208 kts | 234° |
| 2026-05-05 12:25 | 39.49159 | 2.60325 | 3418 ft | 228 kts | 213° |
| 2026-05-05 12:25 | 39.47711 | 2.59240 | 3826 ft | 251 kts | 208° |
| 2026-05-05 12:25 | 39.46131 | 2.58214 | 4636 ft | 256 kts | 207° |
| 2026-05-05 12:26 | 39.44513 | 2.57194 | 5479 ft | 260 kts | 205° |
| 2026-05-05 12:26 | 39.42732 | 2.56711 | 6302 ft | 268 kts | 176° |
| 2026-05-05 12:26 | 39.40995 | 2.57572 | 7048 ft | 279 kts | 148° |
| 2026-05-05 12:26 | 39.39481 | 2.59177 | 7846 ft | 283 kts | 143° |
| 2026-05-05 12:27 | 39.37973 | 2.60842 | 8649 ft | 286 kts | 143° |
| 2026-05-05 12:27 | 39.36456 | 2.62534 | 9456 ft | 290 kts | 142° |
| 2026-05-05 12:27 | 39.34958 | 2.64307 | 10199 ft | 294 kts | 140° |
| 2026-05-05 12:27 | 39.33419 | 2.66198 | 10474 ft | 317 kts | 140° |
| 2026-05-05 12:28 | 39.31774 | 2.68242 | 10625 ft | 340 kts | 140° |
| 2026-05-05 12:28 | 39.30029 | 2.70425 | 10954 ft | 355 kts | 140° |
| 2026-05-05 12:28 | 39.28267 | 2.72710 | 11537 ft | 364 kts | 134° |
| 2026-05-05 12:28 | 39.27054 | 2.75637 | 12150 ft | 380 kts | 108° |
| 2026-05-05 12:29 | 39.26762 | 2.79067 | 12783 ft | 389 kts | 94° |
| 2026-05-05 12:29 | 39.26718 | 2.82574 | 13433 ft | 393 kts | 92° |
| 2026-05-05 12:29 | 39.26782 | 2.86128 | 14025 ft | 399 kts | 86° |
| 2026-05-05 12:29 | 39.27325 | 2.89675 | 14564 ft | 406 kts | 74° |
| 2026-05-05 12:30 | 39.27959 | 2.91953 | 14928 ft | 409 kts | 67° |
| 2026-05-05 12:30 | 39.29747 | 2.96291 | 15648 ft | 415 kts | 59° |
| 2026-05-05 12:30 | 39.31192 | 2.99544 | 16194 ft | 419 kts | 60° |
| 2026-05-05 12:30 | 39.32649 | 3.02835 | 16739 ft | 424 kts | 60° |
| 2026-05-05 12:31 | 39.34120 | 3.06166 | 17256 ft | 428 kts | 60° |
| 2026-05-05 12:31 | 39.35598 | 3.09516 | 17846 ft | 431 kts | 60° |
| 2026-05-05 12:31 | 39.37091 | 3.12899 | 18368 ft | 435 kts | 60° |
| 2026-05-05 12:31 | 39.38089 | 3.15156 | 18669 ft | 438 kts | 60° |
| 2026-05-05 12:32 | 39.39610 | 3.18593 | 19123 ft | 442 kts | 60° |
| 2026-05-05 12:32 | 39.41147 | 3.22064 | 19580 ft | 446 kts | 60° |
| 2026-05-05 12:32 | 39.42698 | 3.25566 | 20032 ft | 451 kts | 60° |
| 2026-05-05 12:32 | 39.44279 | 3.29097 | 20476 ft | 455 kts | 59° |
| 2026-05-05 12:33 | 39.45897 | 3.32634 | 20896 ft | 459 kts | 59° |
| 2026-05-05 12:33 | 39.47546 | 3.36197 | 21322 ft | 464 kts | 58° |
| 2026-05-05 12:33 | 39.49217 | 3.39789 | 21729 ft | 468 kts | 58° |
| 2026-05-05 12:33 | 39.50901 | 3.43413 | 22127 ft | 472 kts | 59° |
| 2026-05-05 12:34 | 39.52596 | 3.47082 | 22529 ft | 476 kts | 59° |
| 2026-05-05 12:34 | 39.54273 | 3.50735 | 22923 ft | 479 kts | 59° |
| 2026-05-05 12:34 | 39.55981 | 3.54470 | 23306 ft | 483 kts | 59° |
| 2026-05-05 12:34 | 39.57697 | 3.58234 | 23653 ft | 487 kts | 59° |
| 2026-05-05 12:35 | 39.59428 | 3.62036 | 23966 ft | 490 kts | 59° |
| 2026-05-05 12:35 | 39.61166 | 3.65850 | 24281 ft | 492 kts | 59° |
| 2026-05-05 12:35 | 39.62915 | 3.69687 | 24605 ft | 494 kts | 59° |
| 2026-05-05 12:35 | 39.64670 | 3.73542 | 24913 ft | 497 kts | 59° |
| 2026-05-05 12:36 | 39.66432 | 3.77414 | 25221 ft | 499 kts | 59° |
| 2026-05-05 12:36 | 39.68179 | 3.81259 | 25525 ft | 501 kts | 59° |
| 2026-05-05 12:36 | 39.69949 | 3.85160 | 25838 ft | 503 kts | 59° |
| 2026-05-05 12:36 | 39.71732 | 3.89098 | 26141 ft | 505 kts | 60° |
| 2026-05-05 12:37 | 39.73512 | 3.93043 | 26433 ft | 508 kts | 60° |
| 2026-05-05 12:37 | 39.75305 | 3.97025 | 26732 ft | 510 kts | 60° |
| 2026-05-05 12:37 | 39.77097 | 4.01008 | 27001 ft | 512 kts | 60° |
| 2026-05-05 12:37 | 39.78903 | 4.05021 | 27272 ft | 514 kts | 60° |
| 2026-05-05 12:38 | 39.80693 | 4.08994 | 27538 ft | 517 kts | 59° |
| 2026-05-05 12:38 | 39.82721 | 4.12869 | 27791 ft | 518 kts | 50° |
| 2026-05-05 12:38 | 39.85171 | 4.16298 | 28035 ft | 518 kts | 40° |
| 2026-05-05 12:38 | 39.87993 | 4.19222 | 28277 ft | 517 kts | 30° |
| 2026-05-05 12:39 | 39.91099 | 4.21561 | 28492 ft | 513 kts | 21° |
| 2026-05-05 12:39 | 39.94402 | 4.23264 | 28715 ft | 509 kts | 12° |
| 2026-05-05 12:39 | 39.97831 | 4.24326 | 28965 ft | 504 kts | 4° |
| 2026-05-05 12:39 | 40.01254 | 4.25128 | 29158 ft | 506 kts | 4° |
| 2026-05-05 12:40 | 40.04727 | 4.25937 | 29391 ft | 507 kts | 4° |
| 2026-05-05 12:40 | 40.08204 | 4.26752 | 29664 ft | 507 kts | 4° |
| 2026-05-05 12:40 | 40.11680 | 4.27568 | 29958 ft | 507 kts | 4° |
| 2026-05-05 12:40 | 40.15146 | 4.28387 | 30222 ft | 507 kts | 4° |
| 2026-05-05 12:41 | 40.18618 | 4.29209 | 30493 ft | 506 kts | 4° |
| 2026-05-05 12:41 | 40.22087 | 4.30031 | 30731 ft | 506 kts | 4° |
| 2026-05-05 12:41 | 40.25554 | 4.30851 | 30970 ft | 506 kts | 4° |
| 2026-05-05 12:41 | 40.29019 | 4.31671 | 31220 ft | 506 kts | 4° |
| 2026-05-05 12:42 | 40.32448 | 4.32485 | 31466 ft | 505 kts | 4° |
| 2026-05-05 12:42 | 40.35907 | 4.33307 | 31712 ft | 505 kts | 4° |
| 2026-05-05 12:42 | 40.39373 | 4.34131 | 31965 ft | 505 kts | 4° |
| 2026-05-05 12:42 | 40.42832 | 4.34955 | 32234 ft | 505 kts | 4° |
| 2026-05-05 12:43 | 40.46290 | 4.35781 | 32467 ft | 505 kts | 4° |
| 2026-05-05 12:43 | 40.49752 | 4.36607 | 32713 ft | 505 kts | 3° |
| 2026-05-05 12:43 | 40.53214 | 4.37431 | 32963 ft | 505 kts | 3° |
| 2026-05-05 12:43 | 40.56673 | 4.38255 | 33216 ft | 504 kts | 3° |
| 2026-05-05 12:44 | 40.60125 | 4.39078 | 33461 ft | 504 kts | 3° |
| 2026-05-05 12:44 | 40.63533 | 4.39890 | 33709 ft | 503 kts | 3° |
| 2026-05-05 12:44 | 40.66982 | 4.40710 | 33913 ft | 503 kts | 3° |
| 2026-05-05 12:44 | 40.70435 | 4.41534 | 33952 ft | 504 kts | 3° |
| 2026-05-05 12:45 | 40.77334 | 4.43190 | 33950 ft | 503 kts | 3° |
| 2026-05-05 12:45 | 40.84227 | 4.44853 | 33960 ft | 504 kts | 3° |
| 2026-05-05 12:46 | 40.91110 | 4.46518 | 33948 ft | 506 kts | 3° |
| 2026-05-05 12:46 | 40.98037 | 4.48196 | 33948 ft | 506 kts | 3° |
| 2026-05-05 12:47 | 41.04968 | 4.49880 | 33989 ft | 506 kts | 3° |
| 2026-05-05 12:47 | 41.11909 | 4.51573 | 33950 ft | 507 kts | 3° |
| 2026-05-05 12:48 | 41.18860 | 4.53265 | 33942 ft | 508 kts | 3° |
| 2026-05-05 12:48 | 41.25810 | 4.54966 | 33948 ft | 508 kts | 3° |
| 2026-05-05 12:49 | 41.32779 | 4.56673 | 33954 ft | 509 kts | 3° |
| 2026-05-05 12:49 | 41.39745 | 4.58376 | 33932 ft | 509 kts | 3° |
| 2026-05-05 12:50 | 41.46662 | 4.60074 | 33936 ft | 509 kts | 3° |
| 2026-05-05 12:50 | 41.53634 | 4.61796 | 33956 ft | 509 kts | 3° |
| 2026-05-05 12:51 | 41.60617 | 4.63516 | 33949 ft | 509 kts | 3° |
| 2026-05-05 12:51 | 41.67608 | 4.65238 | 33945 ft | 510 kts | 3° |
| 2026-05-05 12:52 | 41.74440 | 4.67881 | 33953 ft | 523 kts | 19° |
| 2026-05-05 12:52 | 41.80839 | 4.72700 | 33940 ft | 528 kts | 27° |
| 2026-05-05 12:53 | 41.87149 | 4.77778 | 33943 ft | 529 kts | 27° |
| 2026-05-05 12:53 | 41.93476 | 4.82864 | 33952 ft | 529 kts | 27° |
| 2026-05-05 12:54 | 42.02916 | 4.90497 | 33942 ft | 530 kts | 27° |
| 2026-05-05 12:55 | 42.09229 | 4.95612 | 33944 ft | 530 kts | 27° |
| 2026-05-05 12:55 | 42.15539 | 5.00746 | 33946 ft | 529 kts | 27° |
| 2026-05-05 12:56 | 42.21847 | 5.05880 | 33943 ft | 529 kts | 27° |
| 2026-05-05 12:56 | 42.28124 | 5.10995 | 33946 ft | 529 kts | 27° |
| 2026-05-05 12:57 | 42.34427 | 5.16156 | 33958 ft | 529 kts | 27° |
| 2026-05-05 12:57 | 42.40742 | 5.21329 | 33957 ft | 529 kts | 27° |
| 2026-05-05 12:58 | 42.47016 | 5.26492 | 33953 ft | 530 kts | 27° |
| 2026-05-05 12:58 | 42.53315 | 5.31689 | 33985 ft | 529 kts | 27° |
| 2026-05-05 12:59 | 42.59603 | 5.36876 | 33955 ft | 529 kts | 27° |
| 2026-05-05 12:59 | 42.65898 | 5.42092 | 33954 ft | 529 kts | 27° |
| 2026-05-05 13:00 | 42.75285 | 5.49901 | 33957 ft | 529 kts | 27° |
| 2026-05-05 13:01 | 42.87847 | 5.60369 | 33950 ft | 529 kts | 27° |
| 2026-05-05 13:01 | 42.94073 | 5.65591 | 33986 ft | 528 kts | 28° |
| 2026-05-05 13:02 | 43.00334 | 5.70847 | 33976 ft | 528 kts | 28° |
| 2026-05-05 13:02 | 43.06598 | 5.76110 | 33961 ft | 527 kts | 27° |
| 2026-05-05 13:03 | 43.12805 | 5.81345 | 33993 ft | 526 kts | 28° |
| 2026-05-05 13:03 | 43.19025 | 5.86603 | 33991 ft | 525 kts | 28° |
| 2026-05-05 13:04 | 43.25244 | 5.91876 | 33986 ft | 524 kts | 28° |
| 2026-05-05 13:04 | 43.31450 | 5.97148 | 33998 ft | 523 kts | 29° |
| 2026-05-05 13:05 | 43.37738 | 6.01976 | 33978 ft | 516 kts | 18° |
| 2026-05-05 13:05 | 43.44559 | 6.04521 | 33961 ft | 502 kts | 0° |
| 2026-05-05 13:06 | 43.51485 | 6.05246 | 33975 ft | 498 kts | 358° |
| 2026-05-05 13:06 | 43.58361 | 6.05931 | 33966 ft | 498 kts | 358° |
| 2026-05-05 13:07 | 43.65275 | 6.06644 | 33954 ft | 498 kts | 358° |
| 2026-05-05 13:07 | 43.72192 | 6.07354 | 33963 ft | 498 kts | 358° |
| 2026-05-05 13:08 | 43.79044 | 6.09349 | 33926 ft | 510 kts | 16° |
| 2026-05-05 13:08 | 43.85490 | 6.13524 | 33934 ft | 512 kts | 23° |
| 2026-05-05 13:09 | 43.91842 | 6.17873 | 33955 ft | 512 kts | 23° |
| 2026-05-05 13:09 | 43.98237 | 6.22236 | 33945 ft | 512 kts | 22° |
| 2026-05-05 13:10 | 44.04644 | 6.26611 | 33946 ft | 512 kts | 23° |
| 2026-05-05 13:10 | 44.11058 | 6.31013 | 33946 ft | 513 kts | 22° |
| 2026-05-05 13:11 | 44.17470 | 6.35428 | 33931 ft | 514 kts | 22° |
| 2026-05-05 13:11 | 44.23847 | 6.39836 | 33937 ft | 515 kts | 22° |
| 2026-05-05 13:12 | 44.30274 | 6.44281 | 33939 ft | 517 kts | 22° |
| 2026-05-05 13:12 | 44.36711 | 6.48736 | 33939 ft | 515 kts | 23° |
| 2026-05-05 13:13 | 44.43141 | 6.53197 | 33979 ft | 515 kts | 22° |
| 2026-05-05 13:13 | 44.49578 | 6.57684 | 33960 ft | 516 kts | 23° |
| 2026-05-05 13:14 | 44.56001 | 6.62178 | 33946 ft | 516 kts | 23° |
| 2026-05-05 13:14 | 44.62420 | 6.66676 | 33935 ft | 515 kts | 23° |
| 2026-05-05 13:15 | 44.68836 | 6.71181 | 33940 ft | 516 kts | 23° |
| 2026-05-05 13:15 | 44.75266 | 6.75638 | 33928 ft | 513 kts | 18° |
| 2026-05-05 13:16 | 44.82006 | 6.78297 | 33950 ft | 501 kts | 1° |
| 2026-05-05 13:16 | 44.88782 | 6.78460 | 33939 ft | 490 kts | 350° |
| 2026-05-05 13:17 | 44.95598 | 6.78002 | 33942 ft | 490 kts | 350° |
| 2026-05-05 13:17 | 45.02421 | 6.77565 | 33953 ft | 491 kts | 350° |
| 2026-05-05 13:18 | 45.09268 | 6.77127 | 33946 ft | 491 kts | 351° |
| 2026-05-05 13:18 | 45.16058 | 6.76681 | 33947 ft | 491 kts | 350° |
| 2026-05-05 13:19 | 45.22896 | 6.76217 | 33954 ft | 491 kts | 351° |
| 2026-05-05 13:19 | 45.29723 | 6.75759 | 33945 ft | 491 kts | 351° |
| 2026-05-05 13:20 | 45.36552 | 6.75306 | 33939 ft | 491 kts | 351° |
| 2026-05-05 13:20 | 45.43391 | 6.74849 | 33952 ft | 492 kts | 351° |
| 2026-05-05 13:21 | 45.49076 | 6.74459 | 33948 ft | 492 kts | 351° |
| 2026-05-05 13:21 | 45.57062 | 6.73907 | 33939 ft | 491 kts | 351° |
| 2026-05-05 13:22 | 45.63851 | 6.73441 | 33955 ft | 492 kts | 351° |
| 2026-05-05 13:22 | 45.70678 | 6.72981 | 33928 ft | 491 kts | 351° |
| 2026-05-05 13:23 | 45.77510 | 6.72515 | 33955 ft | 491 kts | 352° |
| 2026-05-05 13:23 | 45.83228 | 6.72114 | 33944 ft | 491 kts | 352° |
| 2026-05-05 13:24 | 45.90006 | 6.71651 | 33940 ft | 491 kts | 352° |
| 2026-05-05 13:24 | 45.96823 | 6.71189 | 33952 ft | 490 kts | 352° |
| 2026-05-05 13:25 | 46.03633 | 6.70732 | 33944 ft | 488 kts | 353° |
| 2026-05-05 13:25 | 46.10417 | 6.70237 | 33929 ft | 486 kts | 349° |
| 2026-05-05 13:26 | 46.16866 | 6.68055 | 33921 ft | 475 kts | 335° |
| 2026-05-05 13:26 | 46.23135 | 6.64992 | 33911 ft | 476 kts | 336° |
| 2026-05-05 13:27 | 46.29417 | 6.61957 | 33908 ft | 476 kts | 336° |
| 2026-05-05 13:27 | 46.35694 | 6.58908 | 33900 ft | 475 kts | 336° |
| 2026-05-05 13:28 | 46.41928 | 6.55869 | 33891 ft | 475 kts | 336° |
| 2026-05-05 13:28 | 46.48201 | 6.52786 | 33886 ft | 475 kts | 336° |
| 2026-05-05 13:29 | 46.54475 | 6.49697 | 33879 ft | 475 kts | 336° |
| 2026-05-05 13:29 | 46.60740 | 6.46616 | 33917 ft | 475 kts | 337° |
| 2026-05-05 13:30 | 46.67005 | 6.43526 | 33890 ft | 475 kts | 337° |
| 2026-05-05 13:30 | 46.73227 | 6.40447 | 33887 ft | 475 kts | 337° |
| 2026-05-05 13:31 | 46.79484 | 6.37341 | 33886 ft | 475 kts | 337° |
| 2026-05-05 13:31 | 46.85743 | 6.34227 | 33869 ft | 474 kts | 338° |
| 2026-05-05 13:32 | 46.91992 | 6.31113 | 33862 ft | 474 kts | 337° |
| 2026-05-05 13:32 | 46.98239 | 6.27970 | 33856 ft | 474 kts | 337° |
| 2026-05-05 13:33 | 47.04484 | 6.24839 | 33857 ft | 474 kts | 338° |
| 2026-05-05 13:33 | 47.10492 | 6.20945 | 33857 ft | 471 kts | 330° |
| 2026-05-05 13:34 | 47.16333 | 6.16738 | 33884 ft | 471 kts | 330° |
| 2026-05-05 13:34 | 47.22217 | 6.12485 | 33878 ft | 471 kts | 330° |
| 2026-05-05 13:35 | 47.28101 | 6.08219 | 33867 ft | 471 kts | 332° |
| 2026-05-05 13:35 | 47.34160 | 6.04499 | 33858 ft | 474 kts | 343° |
| 2026-05-05 13:36 | 47.40674 | 6.03398 | 33847 ft | 477 kts | 0° |
| 2026-05-05 13:36 | 47.47311 | 6.03568 | 33848 ft | 477 kts | 0° |
| 2026-05-05 13:37 | 47.53952 | 6.03695 | 33845 ft | 477 kts | 0° |
| 2026-05-05 13:37 | 47.60598 | 6.03824 | 33848 ft | 478 kts | 0° |
| 2026-05-05 13:38 | 47.67249 | 6.03973 | 33848 ft | 477 kts | 1° |
| 2026-05-05 13:38 | 47.73844 | 6.04134 | 33855 ft | 477 kts | 1° |
| 2026-05-05 13:39 | 47.80480 | 6.04321 | 33859 ft | 476 kts | 1° |
| 2026-05-05 13:39 | 47.87102 | 6.04535 | 33848 ft | 476 kts | 2° |
| 2026-05-05 13:40 | 47.93726 | 6.04753 | 33863 ft | 476 kts | 1° |
| 2026-05-05 13:40 | 48.00343 | 6.04960 | 33851 ft | 474 kts | 1° |
| 2026-05-05 13:41 | 48.06884 | 6.05165 | 33833 ft | 473 kts | 2° |
| 2026-05-05 13:41 | 48.13460 | 6.05375 | 33838 ft | 472 kts | 2° |
| 2026-05-05 13:42 | 48.20027 | 6.05573 | 33837 ft | 472 kts | 2° |
| 2026-05-05 13:42 | 48.26591 | 6.05781 | 33840 ft | 472 kts | 2° |
| 2026-05-05 13:43 | 48.33159 | 6.06000 | 33823 ft | 471 kts | 3° |
| 2026-05-05 13:43 | 48.39717 | 6.06279 | 33816 ft | 470 kts | 3° |
| 2026-05-05 13:44 | 48.46231 | 6.06604 | 33818 ft | 470 kts | 3° |
| 2026-05-05 13:44 | 48.52784 | 6.06931 | 33812 ft | 471 kts | 3° |
| 2026-05-05 13:45 | 48.59341 | 6.07243 | 33834 ft | 472 kts | 4° |
| 2026-05-05 13:45 | 48.65877 | 6.07545 | 33827 ft | 472 kts | 3° |
| 2026-05-05 13:46 | 48.72444 | 6.07853 | 33827 ft | 472 kts | 4° |
| 2026-05-05 13:46 | 48.79008 | 6.08181 | 33828 ft | 472 kts | 4° |
| 2026-05-05 13:47 | 48.85575 | 6.08501 | 33849 ft | 472 kts | 4° |
| 2026-05-05 13:47 | 48.92141 | 6.08811 | 33851 ft | 472 kts | 3° |
| 2026-05-05 13:48 | 48.98669 | 6.09119 | 33843 ft | 472 kts | 3° |
| 2026-05-05 13:48 | 49.05253 | 6.09434 | 33842 ft | 473 kts | 3° |
| 2026-05-05 13:49 | 49.11841 | 6.09764 | 33841 ft | 473 kts | 3° |
| 2026-05-05 13:49 | 49.18435 | 6.10083 | 33827 ft | 474 kts | 3° |
| 2026-05-05 13:50 | 49.24981 | 6.10403 | 33813 ft | 474 kts | 3° |
| 2026-05-05 13:50 | 49.31580 | 6.10717 | 33822 ft | 474 kts | 3° |
| 2026-05-05 13:51 | 49.38197 | 6.11040 | 33821 ft | 475 kts | 3° |
| 2026-05-05 13:51 | 49.44830 | 6.11376 | 33824 ft | 477 kts | 3° |
| 2026-05-05 13:52 | 49.51449 | 6.11678 | 33835 ft | 479 kts | 3° |
| 2026-05-05 13:52 | 49.58129 | 6.11920 | 33841 ft | 480 kts | 2° |
| 2026-05-05 13:53 | 49.64835 | 6.12154 | 33832 ft | 483 kts | 2° |
| 2026-05-05 13:53 | 49.71572 | 6.12412 | 33833 ft | 484 kts | 2° |
| 2026-05-05 13:54 | 49.78275 | 6.12683 | 33827 ft | 485 kts | 2° |
| 2026-05-05 13:54 | 49.85040 | 6.12946 | 33769 ft | 488 kts | 2° |
| 2026-05-05 13:55 | 49.88442 | 6.13060 | 33483 ft | 489 kts | 1° |
| 2026-05-05 13:55 | 49.91842 | 6.13116 | 33207 ft | 489 kts | 1° |
| 2026-05-05 13:55 | 49.95243 | 6.13122 | 32928 ft | 488 kts | 0° |
| 2026-05-05 13:55 | 49.98643 | 6.13102 | 32656 ft | 487 kts | 0° |
| 2026-05-05 13:56 | 50.02038 | 6.13079 | 32384 ft | 487 kts | 0° |
| 2026-05-05 13:56 | 50.05382 | 6.13071 | 32122 ft | 486 kts | 360° |
| 2026-05-05 13:56 | 50.08765 | 6.13081 | 31861 ft | 486 kts | 0° |
| 2026-05-05 13:56 | 50.12148 | 6.13103 | 31600 ft | 485 kts | 0° |
| 2026-05-05 13:57 | 50.15521 | 6.13128 | 31345 ft | 484 kts | 0° |
| 2026-05-05 13:57 | 50.18892 | 6.13154 | 31093 ft | 483 kts | 0° |
| 2026-05-05 13:57 | 50.22257 | 6.13181 | 30839 ft | 483 kts | 0° |
| 2026-05-05 13:57 | 50.25612 | 6.13433 | 30585 ft | 481 kts | 7° |
| 2026-05-05 13:58 | 50.28901 | 6.14418 | 30337 ft | 481 kts | 16° |
| 2026-05-05 13:58 | 50.32058 | 6.16129 | 30092 ft | 479 kts | 24° |
| 2026-05-05 13:58 | 50.35022 | 6.18505 | 29846 ft | 477 kts | 33° |
| 2026-05-05 13:58 | 50.37769 | 6.21282 | 29559 ft | 477 kts | 34° |
| 2026-05-05 13:59 | 50.43317 | 6.26974 | 28899 ft | 473 kts | 35° |
| 2026-05-05 13:59 | 50.46047 | 6.29787 | 28196 ft | 467 kts | 35° |
| 2026-05-05 14:00 | 50.51446 | 6.35287 | 26869 ft | 458 kts | 33° |
| 2026-05-05 14:00 | 50.53245 | 6.37006 | 26450 ft | 456 kts | 32° |
| 2026-05-05 14:00 | 50.56900 | 6.40337 | 25597 ft | 451 kts | 31° |
| 2026-05-05 14:00 | 50.59609 | 6.42744 | 24970 ft | 448 kts | 31° |
| 2026-05-05 14:01 | 50.62313 | 6.45159 | 24340 ft | 445 kts | 31° |
| 2026-05-05 14:01 | 50.64991 | 6.47582 | 23715 ft | 442 kts | 32° |
| 2026-05-05 14:01 | 50.67644 | 6.50016 | 23041 ft | 440 kts | 32° |
| 2026-05-05 14:01 | 50.70234 | 6.52422 | 22457 ft | 435 kts | 32° |
| 2026-05-05 14:02 | 50.72825 | 6.54842 | 21898 ft | 430 kts | 32° |
| 2026-05-05 14:02 | 50.75383 | 6.57234 | 21371 ft | 425 kts | 32° |
| 2026-05-05 14:02 | 50.77915 | 6.59601 | 20855 ft | 421 kts | 32° |
| 2026-05-05 14:02 | 50.80448 | 6.61877 | 20359 ft | 417 kts | 27° |
| 2026-05-05 14:03 | 50.83138 | 6.63539 | 19867 ft | 413 kts | 16° |
| 2026-05-05 14:03 | 50.85951 | 6.64448 | 19393 ft | 411 kts | 7° |
| 2026-05-05 14:03 | 50.88787 | 6.65036 | 18921 ft | 409 kts | 7° |
| 2026-05-05 14:03 | 50.91606 | 6.65631 | 18469 ft | 408 kts | 7° |
| 2026-05-05 14:04 | 50.94425 | 6.66236 | 17849 ft | 409 kts | 7° |
| 2026-05-05 14:04 | 50.97253 | 6.66836 | 17181 ft | 409 kts | 7° |
| 2026-05-05 14:04 | 51.00032 | 6.67775 | 16523 ft | 408 kts | 19° |
| 2026-05-05 14:04 | 51.02576 | 6.69733 | 15890 ft | 406 kts | 34° |
| 2026-05-05 14:05 | 51.04724 | 6.72513 | 15263 ft | 399 kts | 47° |
| 2026-05-05 14:05 | 51.06494 | 6.75752 | 14661 ft | 383 kts | 51° |
| 2026-05-05 14:05 | 51.08191 | 6.78937 | 14167 ft | 366 kts | 51° |
| 2026-05-05 14:05 | 51.09810 | 6.81953 | 13698 ft | 351 kts | 51° |
| 2026-05-05 14:06 | 51.11383 | 6.84835 | 13163 ft | 339 kts | 47° |
| 2026-05-05 14:06 | 51.13297 | 6.86868 | 12656 ft | 329 kts | 18° |
| 2026-05-05 14:06 | 51.15516 | 6.87189 | 12132 ft | 318 kts | 347° |
| 2026-05-05 14:06 | 51.17484 | 6.85807 | 11623 ft | 305 kts | 319° |
| 2026-05-05 14:07 | 51.18739 | 6.83234 | 11126 ft | 289 kts | 288° |
| 2026-05-05 14:07 | 51.19057 | 6.80225 | 10723 ft | 271 kts | 261° |
| 2026-05-05 14:07 | 51.18535 | 6.77492 | 10504 ft | 250 kts | 236° |
| 2026-05-05 14:07 | 51.17543 | 6.75258 | 10022 ft | 245 kts | 231° |
| 2026-05-05 14:08 | 51.16519 | 6.73102 | 9491 ft | 243 kts | 230° |
| 2026-05-05 14:08 | 51.15494 | 6.70969 | 8968 ft | 241 kts | 230° |
| 2026-05-05 14:08 | 51.14479 | 6.68863 | 8422 ft | 239 kts | 231° |
| 2026-05-05 14:08 | 51.13469 | 6.66765 | 7886 ft | 238 kts | 231° |
| 2026-05-05 14:09 | 51.12469 | 6.64679 | 7364 ft | 234 kts | 231° |
| 2026-05-05 14:09 | 51.11490 | 6.62646 | 6780 ft | 235 kts | 232° |
| 2026-05-05 14:09 | 51.10504 | 6.60593 | 6251 ft | 233 kts | 232° |
| 2026-05-05 14:09 | 51.09518 | 6.58542 | 5643 ft | 234 kts | 232° |
| 2026-05-05 14:10 | 51.08534 | 6.56497 | 5082 ft | 232 kts | 232° |
| 2026-05-05 14:10 | 51.07556 | 6.54467 | 4555 ft | 231 kts | 232° |
| 2026-05-05 14:10 | 51.06614 | 6.52411 | 4093 ft | 229 kts | 242° |
| 2026-05-05 14:10 | 51.06285 | 6.49978 | 4021 ft | 229 kts | 275° |
| 2026-05-05 14:11 | 51.06546 | 6.47457 | 4025 ft | 232 kts | 282° |
| 2026-05-05 14:11 | 51.06908 | 6.44948 | 4026 ft | 232 kts | 283° |
| 2026-05-05 14:11 | 51.07366 | 6.42490 | 4021 ft | 233 kts | 298° |
| 2026-05-05 14:11 | 51.08462 | 6.40651 | 4015 ft | 232 kts | 331° |
| 2026-05-05 14:12 | 51.10005 | 6.40078 | 3746 ft | 230 kts | 6° |
| 2026-05-05 14:12 | 51.11443 | 6.40993 | 3472 ft | 228 kts | 41° |
| 2026-05-05 14:12 | 51.12475 | 6.42903 | 3201 ft | 228 kts | 52° |
| 2026-05-05 14:12 | 51.13426 | 6.44908 | 3039 ft | 226 kts | 52° |
| 2026-05-05 14:13 | 51.14380 | 6.46897 | 3026 ft | 225 kts | 52° |
| 2026-05-05 14:13 | 51.15313 | 6.48834 | 3044 ft | 218 kts | 52° |
| 2026-05-05 14:13 | 51.16239 | 6.50755 | 3029 ft | 218 kts | 52° |
| 2026-05-05 14:13 | 51.17160 | 6.52667 | 3028 ft | 217 kts | 52° |
| 2026-05-05 14:14 | 51.18078 | 6.54573 | 3031 ft | 217 kts | 52° |
| 2026-05-05 14:14 | 51.18980 | 6.56450 | 2993 ft | 207 kts | 51° |
| 2026-05-05 14:14 | 51.19837 | 6.58234 | 2842 ft | 199 kts | 51° |
| 2026-05-05 14:14 | 51.20666 | 6.59959 | 2584 ft | 193 kts | 52° |
| 2026-05-05 14:15 | 51.21469 | 6.61633 | 2322 ft | 187 kts | 52° |
| 2026-05-05 14:15 | 51.22232 | 6.63224 | 2085 ft | 178 kts | 51° |
| 2026-05-05 14:15 | 51.22964 | 6.64753 | 1839 ft | 166 kts | 50° |
| 2026-05-05 14:15 | 51.23644 | 6.66172 | 1610 ft | 155 kts | 51° |
| 2026-05-05 14:16 | 51.24066 | 6.67053 | 1480 ft | 146 kts | 50° |
| 2026-05-05 14:16 | 51.24845 | 6.68680 | 1253 ft | 135 kts | 50° |
| 2026-05-05 14:16 | 51.25408 | 6.69856 | 1063 ft | 132 kts | 50° |
| 2026-05-05 14:16 | 51.25970 | 6.71032 | 858 ft | 133 kts | 49° |
| 2026-05-05 14:17 | 51.26533 | 6.72208 | 682 ft | 133 kts | 46° |
| 2026-05-05 14:17 | 51.26908 | 6.72993 | 576 ft | 135 kts | 49° |
| 2026-05-05 14:17 | 51.27479 | 6.74195 | 385 ft | 136 kts | 49° |
| 2026-05-05 14:17 | 51.28052 | 6.75387 | 212 ft | 135 kts | 47° |
| 2026-05-05 14:18 | 51.28597 | 6.76551 | 132 ft | 119 kts | 51° |
| 2026-05-05 14:18 | 51.28968 | 6.77315 | 127 ft | 43 kts | 52° |
| 2026-05-05 14:18 | 51.29025 | 6.77497 | 127 ft | 16 kts | 94° |
| 2026-05-05 14:18 | 51.28962 | 6.77621 | 127 ft | 13 kts | 143° |
| 2026-05-05 14:19 | 51.28898 | 6.77628 | 129 ft | 9 kts | 220° |
| 2026-05-05 14:19 | 51.28863 | 6.77560 | 127 ft | 7 kts | 233° |
| 2026-05-05 14:19 | 51.28828 | 6.77487 | 128 ft | 9 kts | 233° |
| 2026-05-05 14:19 | 51.28790 | 6.77407 | 127 ft | 9 kts | 233° |
| 2026-05-05 14:20 | 51.28753 | 6.77329 | 129 ft | 12 kts | 232° |
| 2026-05-05 14:20 | 51.28694 | 6.77204 | 127 ft | 14 kts | 233° |
| 2026-05-05 14:20 | 51.28640 | 6.77091 | 129 ft | 12 kts | 232° |
| 2026-05-05 14:20 | 51.28580 | 6.76966 | 127 ft | 15 kts | 232° |
| 2026-05-05 14:21 | 51.28518 | 6.76835 | 125 ft | 15 kts | 233° |
| 2026-05-05 14:21 | 51.28454 | 6.76701 | 125 ft | 18 kts | 232° |
| 2026-05-05 14:21 | 51.28374 | 6.76533 | 125 ft | 20 kts | 233° |
| 2026-05-05 14:21 | 51.28291 | 6.76356 | 125 ft | 20 kts | 232° |
| 2026-05-05 14:22 | 51.28231 | 6.76232 | 128 ft | 11 kts | 232° |
| 2026-05-05 14:22 | 51.28190 | 6.76148 | 127 ft | 9 kts | 232° |
| 2026-05-05 14:22 | 51.28144 | 6.76052 | 127 ft | 12 kts | 233° |
| 2026-05-05 14:22 | 51.28076 | 6.76046 | 124 ft | 11 kts | 163° |
| 2026-05-05 14:23 | 51.28000 | 6.76047 | 124 ft | 10 kts | 179° |
| 2026-05-05 14:23 | 51.27930 | 6.76048 | 127 ft | 11 kts | 181° |
| 2026-05-05 14:23 | 51.27862 | 6.76052 | 126 ft | 9 kts | 161° |
| 2026-05-05 14:23 | 51.27842 | 6.76130 | 126 ft | 7 kts | 92° |
| 2026-05-05 14:24 | 51.27840 | 6.76208 | 128 ft | 6 kts | 91° |
| 2026-05-05 14:24 | 51.27848 | 6.76259 | 125 ft | 4 kts | 48° |
| 2026-05-05 14:24 | 51.27869 | 6.76297 | 128 ft | 5 kts | 49° |
| 2026-05-05 14:24 | 51.27883 | 6.76322 | 128 ft | 1 kts | 50° |
| 2026-05-05 14:25 | 51.27887 | 6.76330 | 128 ft | 0 kts | 50° |
| 2026-05-05 14:25 | 51.27887 | 6.76332 | 128 ft | 0 kts | 50° |